sensor_id;sensor_type;location;lat;lon;timestamp;pressure;altitude;pressure_sealevel;temperature;humidity
33185;BME280;19550;42.872;25.494;2022-10-16T00:00:39;97127.28;;;5.78;100.00
33185;BME280;19550;42.872;25.494;2022-10-16T00:03:07;97133.59;;;5.78;100.00
33185;BME280;19550;42.872;25.494;2022-10-16T00:05:38;97134.97;;;5.71;100.00
33185;BME280;19550;42.872;25.494;2022-10-16T00:08:06;97128.84;;;5.58;100.00
33185;BME280;19550;42.872;25.494;2022-10-16T00:10:33;97139.06;;;5.73;100.00
33185;BME280;19550;42.872;25.494;2022-10-16T00:13:02;97138.81;;;5.70;100.00
33185;BME280;19550;42.872;25.494;2022-10-16T00:15:29;97139.59;;;5.60;100.00
33185;BME280;19550;42.872;25.494;2022-10-16T00:17:56;97142.34;;;5.65;100.00
33185;BME280;19550;42.872;25.494;2022-10-16T00:20:23;97137.09;;;5.58;100.00
33185;BME280;19550;42.872;25.494;2022-10-16T00:22:49;97147.84;;;5.60;100.00
33185;BME280;19550;42.872;25.494;2022-10-16T00:25:17;97148.91;;;5.49;100.00
33185;BME280;19550;42.872;25.494;2022-10-16T00:27:43;97156.00;;;5.35;100.00
33185;BME280;19550;42.872;25.494;2022-10-16T00:30:12;97150.78;;;5.33;100.00
33185;BME280;19550;42.872;25.494;2022-10-16T00:32:39;97149.44;;;5.46;100.00
33185;BME280;19550;42.872;25.494;2022-10-16T00:35:06;97154.59;;;5.32;100.00
33185;BME280;19550;42.872;25.494;2022-10-16T00:37:33;97154.66;;;5.37;100.00
33185;BME280;19550;42.872;25.494;2022-10-16T00:40:00;97155.16;;;5.29;100.00
33185;BME280;19550;42.872;25.494;2022-10-16T00:42:27;97170.00;;;5.28;100.00
33185;BME280;19550;42.872;25.494;2022-10-16T00:44:55;97169.13;;;5.17;100.00
33185;BME280;19550;42.872;25.494;2022-10-16T00:47:26;97175.72;;;5.16;100.00
33185;BME280;19550;42.872;25.494;2022-10-16T00:49:58;97173.22;;;5.10;100.00
33185;BME280;19550;42.872;25.494;2022-10-16T00:52:26;97167.41;;;5.06;100.00
33185;BME280;19550;42.872;25.494;2022-10-16T00:54:54;97169.63;;;5.09;100.00
33185;BME280;19550;42.872;25.494;2022-10-16T00:57:22;97173.75;;;5.12;100.00
33185;BME280;19550;42.872;25.494;2022-10-16T00:59:49;97174.56;;;5.07;100.00
33185;BME280;19550;42.872;25.494;2022-10-16T01:02:17;97183.34;;;5.04;100.00
33185;BME280;19550;42.872;25.494;2022-10-16T01:04:48;97178.09;;;4.98;100.00
33185;BME280;19550;42.872;25.494;2022-10-16T01:07:28;97178.94;;;4.98;100.00
33185;BME280;19550;42.872;25.494;2022-10-16T01:10:06;97181.09;;;4.91;100.00
33185;BME280;19550;42.872;25.494;2022-10-16T01:12:39;97181.31;;;4.85;100.00
33185;BME280;19550;42.872;25.494;2022-10-16T01:15:12;97182.41;;;4.84;100.00
33185;BME280;19550;42.872;25.494;2022-10-16T01:17:45;97189.78;;;4.78;100.00
33185;BME280;19550;42.872;25.494;2022-10-16T01:20:22;97184.56;;;4.82;100.00
33185;BME280;19550;42.872;25.494;2022-10-16T01:23:04;97190.28;;;4.70;100.00
33185;BME280;19550;42.872;25.494;2022-10-16T01:25:45;97193.53;;;4.67;100.00
33185;BME280;19550;42.872;25.494;2022-10-16T01:28:19;97188.84;;;4.62;100.00
33185;BME280;19550;42.872;25.494;2022-10-16T01:30:49;97173.41;;;4.56;100.00
33185;BME280;19550;42.872;25.494;2022-10-16T01:33:21;97198.38;;;4.55;100.00
33185;BME280;19550;42.872;25.494;2022-10-16T01:35:52;97185.75;;;4.54;100.00
33185;BME280;19550;42.872;25.494;2022-10-16T01:38:25;97191.00;;;4.60;100.00
33185;BME280;19550;42.872;25.494;2022-10-16T01:40:58;97190.72;;;4.57;100.00
33185;BME280;19550;42.872;25.494;2022-10-16T01:43:31;97194.19;;;4.47;100.00
33185;BME280;19550;42.872;25.494;2022-10-16T01:46:00;97185.34;;;4.40;100.00
33185;BME280;19550;42.872;25.494;2022-10-16T01:48:29;97186.19;;;4.40;100.00
33185;BME280;19550;42.872;25.494;2022-10-16T01:51:01;97197.16;;;4.40;100.00
33185;BME280;19550;42.872;25.494;2022-10-16T01:53:30;97179.19;;;4.23;100.00
33185;BME280;19550;42.872;25.494;2022-10-16T01:55:57;97196.28;;;4.30;100.00
33185;BME280;19550;42.872;25.494;2022-10-16T01:58:26;97198.75;;;4.31;100.00
33185;BME280;19550;42.872;25.494;2022-10-16T02:00:57;97197.59;;;4.27;100.00
33185;BME280;19550;42.872;25.494;2022-10-16T02:03:24;97199.72;;;4.20;100.00
33185;BME280;19550;42.872;25.494;2022-10-16T02:05:53;97200.75;;;4.09;100.00
33185;BME280;19550;42.872;25.494;2022-10-16T02:08:21;97212.53;;;4.10;100.00
33185;BME280;19550;42.872;25.494;2022-10-16T02:10:49;97208.72;;;4.11;100.00
33185;BME280;19550;42.872;25.494;2022-10-16T02:13:21;97205.69;;;4.12;100.00
33185;BME280;19550;42.872;25.494;2022-10-16T02:15:49;97207.66;;;4.17;100.00
33185;BME280;19550;42.872;25.494;2022-10-16T02:18:17;97211.13;;;4.07;100.00
33185;BME280;19550;42.872;25.494;2022-10-16T02:20:51;97205.59;;;4.02;100.00
33185;BME280;19550;42.872;25.494;2022-10-16T02:23:24;97212.16;;;4.01;100.00
33185;BME280;19550;42.872;25.494;2022-10-16T02:25:55;97209.38;;;3.96;100.00
33185;BME280;19550;42.872;25.494;2022-10-16T02:28:29;97222.56;;;3.99;100.00
33185;BME280;19550;42.872;25.494;2022-10-16T02:31:01;97206.06;;;3.94;100.00
33185;BME280;19550;42.872;25.494;2022-10-16T02:33:31;97218.06;;;3.88;100.00
33185;BME280;19550;42.872;25.494;2022-10-16T02:35:59;97215.06;;;3.89;100.00
33185;BME280;19550;42.872;25.494;2022-10-16T02:38:26;97212.22;;;3.79;100.00
33185;BME280;19550;42.872;25.494;2022-10-16T02:40:56;97224.69;;;3.65;100.00
33185;BME280;19550;42.872;25.494;2022-10-16T02:43:24;97222.13;;;3.58;100.00
33185;BME280;19550;42.872;25.494;2022-10-16T02:45:51;97216.72;;;3.42;100.00
33185;BME280;19550;42.872;25.494;2022-10-16T02:48:18;97218.38;;;3.43;100.00
33185;BME280;19550;42.872;25.494;2022-10-16T02:50:46;97220.69;;;3.51;100.00
33185;BME280;19550;42.872;25.494;2022-10-16T02:53:13;97221.41;;;3.46;100.00
33185;BME280;19550;42.872;25.494;2022-10-16T02:55:40;97224.78;;;3.53;100.00
33185;BME280;19550;42.872;25.494;2022-10-16T02:58:07;97228.06;;;3.50;100.00
33185;BME280;19550;42.872;25.494;2022-10-16T03:00:34;97229.44;;;3.53;100.00
33185;BME280;19550;42.872;25.494;2022-10-16T03:03:01;97232.47;;;3.51;100.00
33185;BME280;19550;42.872;25.494;2022-10-16T03:05:28;97239.53;;;3.47;100.00
33185;BME280;19550;42.872;25.494;2022-10-16T03:07:56;97235.31;;;3.40;100.00
33185;BME280;19550;42.872;25.494;2022-10-16T03:10:25;97238.44;;;3.48;100.00
33185;BME280;19550;42.872;25.494;2022-10-16T03:12:52;97245.50;;;3.23;100.00
33185;BME280;19550;42.872;25.494;2022-10-16T03:15:19;97245.25;;;3.24;100.00
33185;BME280;19550;42.872;25.494;2022-10-16T03:17:45;97243.84;;;3.22;100.00
33185;BME280;19550;42.872;25.494;2022-10-16T03:20:12;97248.50;;;3.21;100.00
33185;BME280;19550;42.872;25.494;2022-10-16T03:22:39;97248.00;;;3.24;100.00
33185;BME280;19550;42.872;25.494;2022-10-16T03:25:08;97251.56;;;3.25;100.00
33185;BME280;19550;42.872;25.494;2022-10-16T03:27:35;97255.03;;;3.20;100.00
33185;BME280;19550;42.872;25.494;2022-10-16T03:30:02;97247.59;;;3.15;100.00
33185;BME280;19550;42.872;25.494;2022-10-16T03:32:29;97250.22;;;3.27;100.00
33185;BME280;19550;42.872;25.494;2022-10-16T03:34:56;97249.50;;;3.15;100.00
33185;BME280;19550;42.872;25.494;2022-10-16T03:37:23;97255.81;;;3.15;100.00
33185;BME280;19550;42.872;25.494;2022-10-16T03:39:50;97246.84;;;3.20;100.00
33185;BME280;19550;42.872;25.494;2022-10-16T03:42:18;97251.34;;;3.09;100.00
33185;BME280;19550;42.872;25.494;2022-10-16T03:44:45;97250.28;;;3.10;100.00
33185;BME280;19550;42.872;25.494;2022-10-16T03:47:12;97252.66;;;3.07;100.00
33185;BME280;19550;42.872;25.494;2022-10-16T03:49:39;97254.16;;;3.14;100.00
33185;BME280;19550;42.872;25.494;2022-10-16T03:52:06;97255.88;;;3.20;100.00
33185;BME280;19550;42.872;25.494;2022-10-16T03:54:33;97261.63;;;3.19;100.00
33185;BME280;19550;42.872;25.494;2022-10-16T03:56:59;97264.56;;;3.12;100.00
33185;BME280;19550;42.872;25.494;2022-10-16T03:59:28;97267.53;;;3.11;100.00
33185;BME280;19550;42.872;25.494;2022-10-16T04:01:55;97262.66;;;2.96;100.00
33185;BME280;19550;42.872;25.494;2022-10-16T04:04:21;97265.56;;;2.90;100.00
33185;BME280;19550;42.872;25.494;2022-10-16T04:06:48;97266.66;;;2.89;100.00
33185;BME280;19550;42.872;25.494;2022-10-16T04:09:15;97271.38;;;2.76;100.00
33185;BME280;19550;42.872;25.494;2022-10-16T04:11:42;97268.47;;;2.83;100.00
33185;BME280;19550;42.872;25.494;2022-10-16T04:14:09;97265.41;;;2.79;100.00
33185;BME280;19550;42.872;25.494;2022-10-16T04:16:37;97261.38;;;2.65;100.00
33185;BME280;19550;42.872;25.494;2022-10-16T04:19:04;97262.94;;;2.61;100.00
33185;BME280;19550;42.872;25.494;2022-10-16T04:21:31;97258.94;;;2.69;100.00
33185;BME280;19550;42.872;25.494;2022-10-16T04:23:58;97255.97;;;2.70;100.00
33185;BME280;19550;42.872;25.494;2022-10-16T04:26:24;97261.19;;;2.55;100.00
33185;BME280;19550;42.872;25.494;2022-10-16T04:28:51;97266.25;;;2.63;100.00
33185;BME280;19550;42.872;25.494;2022-10-16T04:31:19;97266.25;;;2.63;100.00
33185;BME280;19550;42.872;25.494;2022-10-16T04:33:47;97270.97;;;2.68;100.00
33185;BME280;19550;42.872;25.494;2022-10-16T04:36:14;97268.00;;;2.69;100.00
33185;BME280;19550;42.872;25.494;2022-10-16T04:38:41;97273.47;;;2.69;100.00
33185;BME280;19550;42.872;25.494;2022-10-16T04:41:08;97278.09;;;2.69;100.00
33185;BME280;19550;42.872;25.494;2022-10-16T04:43:35;97282.25;;;2.71;100.00
33185;BME280;19550;42.872;25.494;2022-10-16T04:46:02;97287.63;;;2.66;100.00
33185;BME280;19550;42.872;25.494;2022-10-16T04:48:30;97276.59;;;2.61;100.00
33185;BME280;19550;42.872;25.494;2022-10-16T04:50:58;97287.22;;;2.74;100.00
33185;BME280;19550;42.872;25.494;2022-10-16T04:53:25;97292.22;;;2.77;100.00
33185;BME280;19550;42.872;25.494;2022-10-16T04:55:52;97297.44;;;2.79;100.00
33185;BME280;19550;42.872;25.494;2022-10-16T04:58:19;97289.72;;;2.76;100.00
33185;BME280;19550;42.872;25.494;2022-10-16T05:00:46;97291.22;;;2.84;100.00
33185;BME280;19550;42.872;25.494;2022-10-16T05:03:13;97290.88;;;2.80;100.00
33185;BME280;19550;42.872;25.494;2022-10-16T05:05:42;97294.63;;;2.91;100.00
33185;BME280;19550;42.872;25.494;2022-10-16T05:08:12;97291.34;;;2.94;100.00
33185;BME280;19550;42.872;25.494;2022-10-16T05:10:40;97298.41;;;3.06;100.00
33185;BME280;19550;42.872;25.494;2022-10-16T05:13:07;97302.38;;;3.15;100.00
33185;BME280;19550;42.872;25.494;2022-10-16T05:15:34;97307.84;;;3.32;100.00
33185;BME280;19550;42.872;25.494;2022-10-16T05:18:01;97305.88;;;3.49;100.00
33185;BME280;19550;42.872;25.494;2022-10-16T05:20:28;97301.53;;;3.53;100.00
33185;BME280;19550;42.872;25.494;2022-10-16T05:22:54;97301.34;;;3.60;100.00
33185;BME280;19550;42.872;25.494;2022-10-16T05:25:23;97308.44;;;3.78;100.00
33185;BME280;19550;42.872;25.494;2022-10-16T05:27:50;97309.59;;;3.82;100.00
33185;BME280;19550;42.872;25.494;2022-10-16T05:30:17;97315.81;;;3.99;100.00
33185;BME280;19550;42.872;25.494;2022-10-16T05:32:46;97321.44;;;4.09;100.00
33185;BME280;19550;42.872;25.494;2022-10-16T05:35:13;97323.41;;;4.14;100.00
33185;BME280;19550;42.872;25.494;2022-10-16T05:37:40;97310.56;;;4.19;100.00
33185;BME280;19550;42.872;25.494;2022-10-16T05:40:08;97319.81;;;4.35;100.00
33185;BME280;19550;42.872;25.494;2022-10-16T05:42:36;97325.72;;;4.49;100.00
33185;BME280;19550;42.872;25.494;2022-10-16T05:45:04;97328.50;;;4.54;100.00
33185;BME280;19550;42.872;25.494;2022-10-16T05:47:31;97323.53;;;4.77;100.00
33185;BME280;19550;42.872;25.494;2022-10-16T05:49:58;97320.66;;;4.99;100.00
33185;BME280;19550;42.872;25.494;2022-10-16T05:52:26;97323.31;;;5.21;100.00
33185;BME280;19550;42.872;25.494;2022-10-16T05:54:53;97324.56;;;5.45;100.00
33185;BME280;19550;42.872;25.494;2022-10-16T05:57:20;97328.50;;;5.54;100.00
33185;BME280;19550;42.872;25.494;2022-10-16T05:59:48;97329.38;;;5.65;100.00
33185;BME280;19550;42.872;25.494;2022-10-16T06:02:15;97337.25;;;5.93;100.00
33185;BME280;19550;42.872;25.494;2022-10-16T06:04:42;97345.59;;;6.09;100.00
33185;BME280;19550;42.872;25.494;2022-10-16T06:07:09;97340.16;;;6.24;100.00
33185;BME280;19550;42.872;25.494;2022-10-16T06:09:36;97338.50;;;6.28;100.00
33185;BME280;19550;42.872;25.494;2022-10-16T06:12:03;97346.56;;;6.50;100.00
33185;BME280;19550;42.872;25.494;2022-10-16T06:14:30;97344.66;;;6.65;100.00
33185;BME280;19550;42.872;25.494;2022-10-16T06:16:58;97344.94;;;6.69;100.00
33185;BME280;19550;42.872;25.494;2022-10-16T06:19:25;97345.28;;;6.98;100.00
33185;BME280;19550;42.872;25.494;2022-10-16T06:21:52;97355.75;;;7.16;100.00
33185;BME280;19550;42.872;25.494;2022-10-16T06:24:19;97350.50;;;7.25;100.00
33185;BME280;19550;42.872;25.494;2022-10-16T06:26:45;97358.50;;;7.36;100.00
33185;BME280;19550;42.872;25.494;2022-10-16T06:29:12;97350.50;;;7.50;100.00
33185;BME280;19550;42.872;25.494;2022-10-16T06:31:39;97366.75;;;7.67;100.00
33185;BME280;19550;42.872;25.494;2022-10-16T06:34:08;97370.56;;;7.86;100.00
33185;BME280;19550;42.872;25.494;2022-10-16T06:36:37;97366.13;;;8.00;100.00
33185;BME280;19550;42.872;25.494;2022-10-16T06:39:04;97375.19;;;8.06;100.00
33185;BME280;19550;42.872;25.494;2022-10-16T06:41:33;97367.16;;;8.19;100.00
33185;BME280;19550;42.872;25.494;2022-10-16T06:44:00;97365.19;;;8.30;100.00
33185;BME280;19550;42.872;25.494;2022-10-16T06:46:27;97375.13;;;8.41;100.00
33185;BME280;19550;42.872;25.494;2022-10-16T06:48:54;97375.53;;;8.68;100.00
33185;BME280;19550;42.872;25.494;2022-10-16T06:51:23;97377.91;;;8.90;100.00
33185;BME280;19550;42.872;25.494;2022-10-16T06:53:52;97378.53;;;9.21;100.00
33185;BME280;19550;42.872;25.494;2022-10-16T06:56:21;97378.66;;;9.40;100.00
33185;BME280;19550;42.872;25.494;2022-10-16T06:58:49;97375.53;;;9.46;100.00
33185;BME280;19550;42.872;25.494;2022-10-16T07:01:18;97384.84;;;9.61;100.00
33185;BME280;19550;42.872;25.494;2022-10-16T07:03:46;97382.75;;;9.76;100.00
33185;BME280;19550;42.872;25.494;2022-10-16T07:06:14;97380.44;;;9.88;100.00
33185;BME280;19550;42.872;25.494;2022-10-16T07:08:44;97373.72;;;9.94;100.00
33185;BME280;19550;42.872;25.494;2022-10-16T07:11:11;97384.44;;;10.01;100.00
33185;BME280;19550;42.872;25.494;2022-10-16T07:13:41;97390.94;;;10.15;100.00
33185;BME280;19550;42.872;25.494;2022-10-16T07:16:11;97388.22;;;10.39;100.00
33185;BME280;19550;42.872;25.494;2022-10-16T07:18:38;97382.06;;;10.66;100.00
33185;BME280;19550;42.872;25.494;2022-10-16T07:21:06;97385.09;;;10.88;100.00
33185;BME280;19550;42.872;25.494;2022-10-16T07:23:33;97385.56;;;11.14;99.95
33185;BME280;19550;42.872;25.494;2022-10-16T07:26:02;97386.38;;;11.33;98.66
33185;BME280;19550;42.872;25.494;2022-10-16T07:28:29;97385.22;;;11.53;97.38
33185;BME280;19550;42.872;25.494;2022-10-16T07:31:00;97388.03;;;11.67;96.62
33185;BME280;19550;42.872;25.494;2022-10-16T07:33:28;97397.72;;;11.88;96.19
33185;BME280;19550;42.872;25.494;2022-10-16T07:35:55;97388.16;;;11.94;96.04
33185;BME280;19550;42.872;25.494;2022-10-16T07:38:22;97381.41;;;12.14;95.79
33185;BME280;19550;42.872;25.494;2022-10-16T07:40:56;97393.56;;;12.45;94.17
33185;BME280;19550;42.872;25.494;2022-10-16T07:43:25;97392.16;;;12.61;92.79
33185;BME280;19550;42.872;25.494;2022-10-16T07:45:52;97388.41;;;12.80;92.23
33185;BME280;19550;42.872;25.494;2022-10-16T07:48:20;97385.31;;;12.95;90.82
33185;BME280;19550;42.872;25.494;2022-10-16T07:50:47;97393.94;;;13.07;90.78
33185;BME280;19550;42.872;25.494;2022-10-16T07:53:14;97386.84;;;13.01;89.27
33185;BME280;19550;42.872;25.494;2022-10-16T07:55:41;97392.56;;;13.32;89.72
33185;BME280;19550;42.872;25.494;2022-10-16T07:58:08;97385.69;;;13.51;86.67
33185;BME280;19550;42.872;25.494;2022-10-16T08:00:37;97386.28;;;13.62;84.73
33185;BME280;19550;42.872;25.494;2022-10-16T08:03:04;97381.19;;;13.86;82.22
33185;BME280;19550;42.872;25.494;2022-10-16T08:05:32;97394.78;;;14.10;80.93
33185;BME280;19550;42.872;25.494;2022-10-16T08:08:00;97393.69;;;14.20;79.39
33185;BME280;19550;42.872;25.494;2022-10-16T08:10:28;97391.66;;;14.34;78.98
33185;BME280;19550;42.872;25.494;2022-10-16T08:12:57;97395.97;;;14.40;77.65
33185;BME280;19550;42.872;25.494;2022-10-16T08:15:24;97394.22;;;14.53;77.66
33185;BME280;19550;42.872;25.494;2022-10-16T08:17:59;97386.16;;;14.51;73.50
33185;BME280;19550;42.872;25.494;2022-10-16T08:20:27;97383.94;;;14.62;75.52
33185;BME280;19550;42.872;25.494;2022-10-16T08:22:54;97384.00;;;14.96;75.30
33185;BME280;19550;42.872;25.494;2022-10-16T08:25:22;97384.72;;;15.36;73.97
33185;BME280;19550;42.872;25.494;2022-10-16T08:27:49;97382.00;;;15.54;72.94
33185;BME280;19550;42.872;25.494;2022-10-16T08:30:18;97383.81;;;15.67;72.16
33185;BME280;19550;42.872;25.494;2022-10-16T08:32:45;97380.66;;;15.85;68.77
33185;BME280;19550;42.872;25.494;2022-10-16T08:35:14;97387.72;;;16.00;70.83
33185;BME280;19550;42.872;25.494;2022-10-16T08:37:42;97378.66;;;15.51;71.72
33185;BME280;19550;42.872;25.494;2022-10-16T08:40:17;97378.50;;;15.48;72.81
33185;BME280;19550;42.872;25.494;2022-10-16T08:43:09;97392.66;;;15.77;71.01
33185;BME280;19550;42.872;25.494;2022-10-16T08:45:44;97398.03;;;16.25;66.17
33185;BME280;19550;42.872;25.494;2022-10-16T08:48:18;97396.53;;;16.28;64.87
33185;BME280;19550;42.872;25.494;2022-10-16T08:50:50;97400.63;;;16.39;64.41
33185;BME280;19550;42.872;25.494;2022-10-16T08:53:20;97402.41;;;16.44;64.29
33185;BME280;19550;42.872;25.494;2022-10-16T08:55:50;97388.75;;;16.42;63.49
33185;BME280;19550;42.872;25.494;2022-10-16T08:58:19;97393.16;;;16.60;63.39
33185;BME280;19550;42.872;25.494;2022-10-16T09:00:47;97393.50;;;16.50;63.73
33185;BME280;19550;42.872;25.494;2022-10-16T09:03:27;97400.66;;;16.77;62.52
33185;BME280;19550;42.872;25.494;2022-10-16T09:08:58;97404.56;;;16.93;61.85
33185;BME280;19550;42.872;25.494;2022-10-16T09:11:37;97406.44;;;17.10;61.00
33185;BME280;19550;42.872;25.494;2022-10-16T09:14:18;97409.84;;;16.86;60.65
33185;BME280;19550;42.872;25.494;2022-10-16T09:16:55;97405.81;;;17.04;60.82
33185;BME280;19550;42.872;25.494;2022-10-16T09:19:27;97410.25;;;17.05;60.73
33185;BME280;19550;42.872;25.494;2022-10-16T09:21:59;97411.91;;;16.68;60.58
33185;BME280;19550;42.872;25.494;2022-10-16T09:24:29;97413.22;;;16.71;61.48
33185;BME280;19550;42.872;25.494;2022-10-16T09:26:56;97412.63;;;16.95;60.61
33185;BME280;19550;42.872;25.494;2022-10-16T09:29:23;97406.28;;;17.06;59.78
33185;BME280;19550;42.872;25.494;2022-10-16T09:31:50;97406.97;;;17.33;59.14
33185;BME280;19550;42.872;25.494;2022-10-16T09:34:24;97414.78;;;17.19;58.92
33185;BME280;19550;42.872;25.494;2022-10-16T09:36:58;97408.25;;;17.35;59.51
33185;BME280;19550;42.872;25.494;2022-10-16T09:39:25;97407.78;;;17.33;57.77
33185;BME280;19550;42.872;25.494;2022-10-16T09:41:52;97404.91;;;17.42;58.01
33185;BME280;19550;42.872;25.494;2022-10-16T09:44:24;97412.16;;;17.43;57.65
33185;BME280;19550;42.872;25.494;2022-10-16T09:47:01;97394.78;;;17.49;57.65
33185;BME280;19550;42.872;25.494;2022-10-16T09:49:28;97407.94;;;17.58;56.25
33185;BME280;19550;42.872;25.494;2022-10-16T09:52:04;97403.13;;;17.67;56.05
33185;BME280;19550;42.872;25.494;2022-10-16T09:54:32;97409.56;;;17.59;57.17
33185;BME280;19550;42.872;25.494;2022-10-16T09:57:05;97403.16;;;17.58;56.37
33185;BME280;19550;42.872;25.494;2022-10-16T09:59:32;97404.88;;;17.71;56.25
33185;BME280;19550;42.872;25.494;2022-10-16T10:02:04;97403.38;;;17.95;56.54
33185;BME280;19550;42.872;25.494;2022-10-16T10:04:39;97399.88;;;17.98;54.43
33185;BME280;19550;42.872;25.494;2022-10-16T10:07:17;97393.31;;;17.94;54.16
33185;BME280;19550;42.872;25.494;2022-10-16T10:09:45;97389.09;;;18.20;54.87
33185;BME280;19550;42.872;25.494;2022-10-16T10:12:21;97390.03;;;18.24;54.12
33185;BME280;19550;42.872;25.494;2022-10-16T10:14:49;97389.78;;;18.17;53.96
33185;BME280;19550;42.872;25.494;2022-10-16T10:17:18;97389.13;;;18.33;53.72
33185;BME280;19550;42.872;25.494;2022-10-16T10:19:51;97377.16;;;18.23;53.78
33185;BME280;19550;42.872;25.494;2022-10-16T10:22:24;97376.72;;;18.34;53.13
33185;BME280;19550;42.872;25.494;2022-10-16T10:25:01;97364.13;;;18.52;53.73
33185;BME280;19550;42.872;25.494;2022-10-16T10:27:41;97383.47;;;18.65;51.81
33185;BME280;19550;42.872;25.494;2022-10-16T10:30:17;97377.19;;;18.81;52.37
33185;BME280;19550;42.872;25.494;2022-10-16T10:32:50;97375.53;;;18.92;51.74
33185;BME280;19550;42.872;25.494;2022-10-16T10:35:24;97377.53;;;19.03;51.38
33185;BME280;19550;42.872;25.494;2022-10-16T10:38:03;97363.81;;;19.26;50.31
33185;BME280;19550;42.872;25.494;2022-10-16T10:40:40;97374.34;;;19.17;49.92
33185;BME280;19550;42.872;25.494;2022-10-16T10:43:19;97374.38;;;19.05;51.60
33185;BME280;19550;42.872;25.494;2022-10-16T10:45:51;97378.00;;;18.36;51.49
33185;BME280;19550;42.872;25.494;2022-10-16T10:48:38;97374.72;;;18.79;52.88
33185;BME280;19550;42.872;25.494;2022-10-16T10:51:14;97368.28;;;18.91;51.69
33185;BME280;19550;42.872;25.494;2022-10-16T10:53:54;97370.16;;;18.99;53.31
33185;BME280;19550;42.872;25.494;2022-10-16T10:56:42;97361.84;;;18.90;52.67
33185;BME280;19550;42.872;25.494;2022-10-16T10:59:42;97356.78;;;19.08;51.97
33185;BME280;19550;42.872;25.494;2022-10-16T11:02:19;97358.22;;;18.90;51.35
33185;BME280;19550;42.872;25.494;2022-10-16T11:07:50;97357.38;;;19.01;49.33
33185;BME280;19550;42.872;25.494;2022-10-16T11:10:23;97342.97;;;19.15;49.12
33185;BME280;19550;42.872;25.494;2022-10-16T11:12:54;97352.28;;;19.56;49.86
33185;BME280;19550;42.872;25.494;2022-10-16T11:15:27;97359.22;;;19.58;49.29
33185;BME280;19550;42.872;25.494;2022-10-16T11:17:59;97355.34;;;19.38;50.54
33185;BME280;19550;42.872;25.494;2022-10-16T11:20:32;97354.53;;;19.50;50.75
33185;BME280;19550;42.872;25.494;2022-10-16T11:23:02;97347.50;;;19.84;50.94
33185;BME280;19550;42.872;25.494;2022-10-16T11:25:33;97350.75;;;19.98;51.24
33185;BME280;19550;42.872;25.494;2022-10-16T11:28:03;97355.19;;;19.99;51.28
33185;BME280;19550;42.872;25.494;2022-10-16T11:30:42;97353.75;;;20.05;51.85
33185;BME280;19550;42.872;25.494;2022-10-16T11:33:22;97356.38;;;19.98;49.57
33185;BME280;19550;42.872;25.494;2022-10-16T11:35:55;97361.69;;;19.88;49.91
33185;BME280;19550;42.872;25.494;2022-10-16T11:38:29;97351.66;;;19.74;48.61
33185;BME280;19550;42.872;25.494;2022-10-16T11:41:03;97352.28;;;19.56;48.41
33185;BME280;19550;42.872;25.494;2022-10-16T11:43:38;97347.50;;;19.84;46.13
33185;BME280;19550;42.872;25.494;2022-10-16T11:46:11;97346.34;;;19.85;45.68
33185;BME280;19550;42.872;25.494;2022-10-16T11:48:43;97350.78;;;19.86;47.16
33185;BME280;19550;42.872;25.494;2022-10-16T11:51:16;97346.75;;;19.71;48.54
33185;BME280;19550;42.872;25.494;2022-10-16T11:53:51;97348.69;;;19.83;47.42
33185;BME280;19550;42.872;25.494;2022-10-16T11:56:22;97358.16;;;19.91;46.68
33185;BME280;19550;42.872;25.494;2022-10-16T11:58:54;97354.50;;;20.18;45.57
33185;BME280;19550;42.872;25.494;2022-10-16T12:01:28;97354.66;;;20.37;44.90
33185;BME280;19550;42.872;25.494;2022-10-16T12:04:18;97362.00;;;19.98;47.68
33185;BME280;19550;42.872;25.494;2022-10-16T12:06:51;97358.09;;;19.75;48.19
33185;BME280;19550;42.872;25.494;2022-10-16T12:09:23;97367.06;;;19.93;47.07
33185;BME280;19550;42.872;25.494;2022-10-16T12:11:53;97363.72;;;20.03;47.38
33185;BME280;19550;42.872;25.494;2022-10-16T12:14:33;97365.13;;;20.37;46.45
33185;BME280;19550;42.872;25.494;2022-10-16T12:17:02;97365.84;;;20.21;46.88
33185;BME280;19550;42.872;25.494;2022-10-16T12:19:32;97374.28;;;20.06;47.11
33185;BME280;19550;42.872;25.494;2022-10-16T12:22:00;97369.69;;;20.13;47.79
33185;BME280;19550;42.872;25.494;2022-10-16T12:24:34;97375.66;;;20.12;46.98
33185;BME280;19550;42.872;25.494;2022-10-16T12:27:05;97368.03;;;20.12;47.12
33185;BME280;19550;42.872;25.494;2022-10-16T12:29:35;97365.22;;;19.84;46.05
33185;BME280;19550;42.872;25.494;2022-10-16T12:32:04;97364.25;;;19.53;46.49
33185;BME280;19550;42.872;25.494;2022-10-16T12:34:38;97360.06;;;19.22;47.52
33185;BME280;19550;42.872;25.494;2022-10-16T12:37:12;97372.31;;;19.42;48.27
33185;BME280;19550;42.872;25.494;2022-10-16T12:39:40;97370.34;;;19.30;47.06
33185;BME280;19550;42.872;25.494;2022-10-16T12:42:23;97371.28;;;19.59;46.84
33185;BME280;19550;42.872;25.494;2022-10-16T12:44:50;97367.78;;;19.50;48.10
33185;BME280;19550;42.872;25.494;2022-10-16T12:47:22;97377.66;;;19.19;48.37
33185;BME280;19550;42.872;25.494;2022-10-16T12:49:51;97376.69;;;18.67;49.43
33185;BME280;19550;42.872;25.494;2022-10-16T12:52:34;97381.50;;;18.21;50.00
33185;BME280;19550;42.872;25.494;2022-10-16T12:55:01;97388.88;;;17.93;51.29
33185;BME280;19550;42.872;25.494;2022-10-16T12:57:39;97388.63;;;17.56;52.49
33185;BME280;19550;42.872;25.494;2022-10-16T13:00:17;97388.50;;;17.32;53.14
33185;BME280;19550;42.872;25.494;2022-10-16T13:03:17;97380.50;;;17.22;53.97
33185;BME280;19550;42.872;25.494;2022-10-16T13:05:58;97394.41;;;17.09;56.07
33185;BME280;19550;42.872;25.494;2022-10-16T13:08:47;97388.69;;;16.97;55.21
33185;BME280;19550;42.872;25.494;2022-10-16T13:11:22;97398.66;;;16.86;54.27